sensor_id;sensor_type;location;lat;lon;timestamp;P1;durP1;ratioP1;P2;durP2;ratioP2
48363;SDS011;34170;54.364;18.582;2024-03-02T00:00:22;57.53;;;32.78;;
48363;SDS011;34170;54.364;18.582;2024-03-02T00:03:12;63.58;;;33.45;;
48363;SDS011;34170;54.364;18.582;2024-03-02T00:05:41;59.30;;;31.25;;
48363;SDS011;34170;54.364;18.582;2024-03-02T00:08:09;57.67;;;30.65;;
48363;SDS011;34170;54.364;18.582;2024-03-02T00:10:37;59.28;;;32.28;;
48363;SDS011;34170;54.364;18.582;2024-03-02T00:13:08;63.30;;;33.65;;
48363;SDS011;34170;54.364;18.582;2024-03-02T00:18:23;58.75;;;31.05;;
48363;SDS011;34170;54.364;18.582;2024-03-02T00:20:53;58.35;;;30.75;;
48363;SDS011;34170;54.364;18.582;2024-03-02T00:23:26;55.08;;;29.98;;
48363;SDS011;34170;54.364;18.582;2024-03-02T00:25:56;64.05;;;32.53;;
48363;SDS011;34170;54.364;18.582;2024-03-02T00:28:31;55.88;;;33.22;;
48363;SDS011;34170;54.364;18.582;2024-03-02T00:31:05;60.15;;;32.55;;
48363;SDS011;34170;54.364;18.582;2024-03-02T00:33:35;59.67;;;31.35;;
48363;SDS011;34170;54.364;18.582;2024-03-02T00:36:05;56.97;;;33.35;;
48363;SDS011;34170;54.364;18.582;2024-03-02T00:38:34;60.40;;;33.78;;
48363;SDS011;34170;54.364;18.582;2024-03-02T00:41:08;56.38;;;32.67;;
48363;SDS011;34170;54.364;18.582;2024-03-02T00:46:37;63.00;;;33.85;;
48363;SDS011;34170;54.364;18.582;2024-03-02T00:51:51;59.08;;;33.15;;
48363;SDS011;34170;54.364;18.582;2024-03-02T00:54:20;55.75;;;31.10;;
48363;SDS011;34170;54.364;18.582;2024-03-02T00:56:51;60.37;;;32.07;;
48363;SDS011;34170;54.364;18.582;2024-03-02T00:59:20;60.33;;;30.88;;
48363;SDS011;34170;54.364;18.582;2024-03-02T01:01:49;62.83;;;32.85;;
48363;SDS011;34170;54.364;18.582;2024-03-02T01:04:16;59.00;;;31.85;;
48363;SDS011;34170;54.364;18.582;2024-03-02T01:06:44;56.10;;;31.00;;
48363;SDS011;34170;54.364;18.582;2024-03-02T01:09:13;66.45;;;33.30;;
48363;SDS011;34170;54.364;18.582;2024-03-02T01:11:41;60.38;;;32.42;;
48363;SDS011;34170;54.364;18.582;2024-03-02T01:14:08;57.78;;;31.60;;
48363;SDS011;34170;54.364;18.582;2024-03-02T01:16:36;61.85;;;32.45;;
48363;SDS011;34170;54.364;18.582;2024-03-02T01:19:03;56.88;;;31.15;;
48363;SDS011;34170;54.364;18.582;2024-03-02T01:21:31;65.43;;;33.50;;
48363;SDS011;34170;54.364;18.582;2024-03-02T01:23:59;62.08;;;32.25;;
48363;SDS011;34170;54.364;18.582;2024-03-02T01:26:27;59.80;;;32.83;;
48363;SDS011;34170;54.364;18.582;2024-03-02T01:28:54;62.97;;;33.22;;
48363;SDS011;34170;54.364;18.582;2024-03-02T01:31:22;63.05;;;33.75;;
48363;SDS011;34170;54.364;18.582;2024-03-02T01:33:50;56.88;;;31.00;;
48363;SDS011;34170;54.364;18.582;2024-03-02T01:36:18;62.72;;;34.08;;
48363;SDS011;34170;54.364;18.582;2024-03-02T01:38:45;62.75;;;33.30;;
48363;SDS011;34170;54.364;18.582;2024-03-02T01:41:13;68.93;;;32.67;;
48363;SDS011;34170;54.364;18.582;2024-03-02T01:43:41;58.53;;;31.02;;
48363;SDS011;34170;54.364;18.582;2024-03-02T01:46:08;66.85;;;32.80;;
48363;SDS011;34170;54.364;18.582;2024-03-02T01:48:36;64.28;;;32.78;;
48363;SDS011;34170;54.364;18.582;2024-03-02T01:51:04;60.15;;;31.42;;
48363;SDS011;34170;54.364;18.582;2024-03-02T01:53:36;59.53;;;31.30;;
48363;SDS011;34170;54.364;18.582;2024-03-02T01:56:04;57.15;;;30.92;;
48363;SDS011;34170;54.364;18.582;2024-03-02T01:58:32;64.03;;;32.28;;
48363;SDS011;34170;54.364;18.582;2024-03-02T02:01:00;62.00;;;31.48;;
48363;SDS011;34170;54.364;18.582;2024-03-02T02:03:28;65.43;;;32.05;;
48363;SDS011;34170;54.364;18.582;2024-03-02T02:05:56;63.28;;;34.42;;
48363;SDS011;34170;54.364;18.582;2024-03-02T02:08:23;65.47;;;33.50;;
48363;SDS011;34170;54.364;18.582;2024-03-02T02:10:51;65.68;;;33.65;;
48363;SDS011;34170;54.364;18.582;2024-03-02T02:13:18;66.80;;;34.40;;
48363;SDS011;34170;54.364;18.582;2024-03-02T02:15:46;72.15;;;36.80;;
48363;SDS011;34170;54.364;18.582;2024-03-02T02:18:13;63.78;;;32.28;;
48363;SDS011;34170;54.364;18.582;2024-03-02T02:20:41;63.83;;;34.15;;
48363;SDS011;34170;54.364;18.582;2024-03-02T02:23:09;67.35;;;34.20;;
48363;SDS011;34170;54.364;18.582;2024-03-02T02:25:37;65.20;;;32.85;;
48363;SDS011;34170;54.364;18.582;2024-03-02T02:28:05;63.47;;;30.95;;
48363;SDS011;34170;54.364;18.582;2024-03-02T02:30:32;63.40;;;31.33;;
48363;SDS011;34170;54.364;18.582;2024-03-02T02:33:00;62.13;;;32.28;;
48363;SDS011;34170;54.364;18.582;2024-03-02T02:35:28;62.28;;;31.95;;
48363;SDS011;34170;54.364;18.582;2024-03-02T02:37:56;69.20;;;33.30;;
48363;SDS011;34170;54.364;18.582;2024-03-02T02:40:25;57.97;;;31.75;;
48363;SDS011;34170;54.364;18.582;2024-03-02T02:42:53;57.97;;;30.02;;
48363;SDS011;34170;54.364;18.582;2024-03-02T02:45:21;61.38;;;32.67;;
48363;SDS011;34170;54.364;18.582;2024-03-02T02:47:49;61.63;;;31.65;;
48363;SDS011;34170;54.364;18.582;2024-03-02T02:50:16;59.90;;;32.00;;
48363;SDS011;34170;54.364;18.582;2024-03-02T02:52:44;66.03;;;34.55;;
48363;SDS011;34170;54.364;18.582;2024-03-02T02:55:13;59.03;;;33.15;;
48363;SDS011;34170;54.364;18.582;2024-03-02T02:57:41;58.45;;;30.23;;
48363;SDS011;34170;54.364;18.582;2024-03-02T03:00:11;60.30;;;30.92;;
48363;SDS011;34170;54.364;18.582;2024-03-02T03:02:44;59.65;;;32.05;;
48363;SDS011;34170;54.364;18.582;2024-03-02T03:05:18;60.60;;;30.08;;
48363;SDS011;34170;54.364;18.582;2024-03-02T03:07:46;61.15;;;32.00;;
48363;SDS011;34170;54.364;18.582;2024-03-02T03:10:16;60.67;;;32.20;;
48363;SDS011;34170;54.364;18.582;2024-03-02T03:12:44;65.03;;;31.95;;
48363;SDS011;34170;54.364;18.582;2024-03-02T03:15:12;66.25;;;34.00;;
48363;SDS011;34170;54.364;18.582;2024-03-02T03:17:40;63.70;;;33.05;;
48363;SDS011;34170;54.364;18.582;2024-03-02T03:20:08;59.13;;;31.10;;
48363;SDS011;34170;54.364;18.582;2024-03-02T03:22:42;63.95;;;35.17;;
48363;SDS011;34170;54.364;18.582;2024-03-02T03:25:10;66.38;;;35.00;;
48363;SDS011;34170;54.364;18.582;2024-03-02T03:27:38;71.63;;;34.10;;
48363;SDS011;34170;54.364;18.582;2024-03-02T03:30:06;67.20;;;33.45;;
48363;SDS011;34170;54.364;18.582;2024-03-02T03:32:34;63.45;;;32.85;;
48363;SDS011;34170;54.364;18.582;2024-03-02T03:35:02;69.05;;;34.97;;
48363;SDS011;34170;54.364;18.582;2024-03-02T03:37:31;65.57;;;34.55;;
48363;SDS011;34170;54.364;18.582;2024-03-02T03:40:04;66.32;;;32.22;;
48363;SDS011;34170;54.364;18.582;2024-03-02T03:42:37;64.10;;;34.65;;
48363;SDS011;34170;54.364;18.582;2024-03-02T03:45:07;66.30;;;34.03;;
48363;SDS011;34170;54.364;18.582;2024-03-02T03:47:35;65.72;;;34.13;;
48363;SDS011;34170;54.364;18.582;2024-03-02T03:50:03;69.22;;;34.72;;
48363;SDS011;34170;54.364;18.582;2024-03-02T03:52:34;63.10;;;33.13;;
48363;SDS011;34170;54.364;18.582;2024-03-02T03:55:02;65.25;;;33.95;;
48363;SDS011;34170;54.364;18.582;2024-03-02T03:57:29;68.38;;;34.97;;
48363;SDS011;34170;54.364;18.582;2024-03-02T03:59:57;71.60;;;36.10;;
48363;SDS011;34170;54.364;18.582;2024-03-02T04:02:24;69.50;;;33.13;;
48363;SDS011;34170;54.364;18.582;2024-03-02T04:04:52;64.00;;;33.13;;
48363;SDS011;34170;54.364;18.582;2024-03-02T04:07:20;70.68;;;33.88;;
48363;SDS011;34170;54.364;18.582;2024-03-02T04:09:47;70.00;;;34.78;;
48363;SDS011;34170;54.364;18.582;2024-03-02T04:12:15;70.75;;;37.42;;
48363;SDS011;34170;54.364;18.582;2024-03-02T04:14:43;71.93;;;35.00;;
48363;SDS011;34170;54.364;18.582;2024-03-02T04:17:10;77.80;;;39.50;;
48363;SDS011;34170;54.364;18.582;2024-03-02T04:19:38;73.32;;;35.80;;
48363;SDS011;34170;54.364;18.582;2024-03-02T04:22:05;74.40;;;35.47;;
48363;SDS011;34170;54.364;18.582;2024-03-02T04:24:47;70.22;;;34.40;;
48363;SDS011;34170;54.364;18.582;2024-03-02T04:27:14;70.97;;;35.05;;
48363;SDS011;34170;54.364;18.582;2024-03-02T04:29:43;70.53;;;35.30;;
48363;SDS011;34170;54.364;18.582;2024-03-02T04:32:10;70.55;;;35.63;;
48363;SDS011;34170;54.364;18.582;2024-03-02T04:34:38;73.15;;;35.25;;
48363;SDS011;34170;54.364;18.582;2024-03-02T04:37:05;71.45;;;34.70;;
48363;SDS011;34170;54.364;18.582;2024-03-02T04:39:34;72.00;;;34.55;;
48363;SDS011;34170;54.364;18.582;2024-03-02T04:42:02;71.70;;;36.22;;
48363;SDS011;34170;54.364;18.582;2024-03-02T04:44:30;77.38;;;37.35;;
48363;SDS011;34170;54.364;18.582;2024-03-02T04:46:57;72.60;;;34.35;;
48363;SDS011;34170;54.364;18.582;2024-03-02T04:49:25;73.13;;;36.00;;
48363;SDS011;34170;54.364;18.582;2024-03-02T04:51:53;78.53;;;35.45;;
48363;SDS011;34170;54.364;18.582;2024-03-02T04:54:21;70.32;;;34.38;;
48363;SDS011;34170;54.364;18.582;2024-03-02T04:56:49;70.07;;;36.35;;
48363;SDS011;34170;54.364;18.582;2024-03-02T04:59:17;71.63;;;37.90;;
48363;SDS011;34170;54.364;18.582;2024-03-02T05:01:46;67.05;;;34.80;;
48363;SDS011;34170;54.364;18.582;2024-03-02T05:04:14;69.28;;;35.28;;
48363;SDS011;34170;54.364;18.582;2024-03-02T05:06:42;69.55;;;34.90;;
48363;SDS011;34170;54.364;18.582;2024-03-02T05:09:10;72.05;;;35.63;;
48363;SDS011;34170;54.364;18.582;2024-03-02T05:11:37;72.40;;;36.97;;
48363;SDS011;34170;54.364;18.582;2024-03-02T05:14:05;70.50;;;36.70;;
48363;SDS011;34170;54.364;18.582;2024-03-02T05:16:34;65.50;;;33.75;;
48363;SDS011;34170;54.364;18.582;2024-03-02T05:19:02;70.97;;;34.85;;
48363;SDS011;34170;54.364;18.582;2024-03-02T05:21:30;71.43;;;34.33;;
48363;SDS011;34170;54.364;18.582;2024-03-02T05:23:58;68.10;;;33.17;;
48363;SDS011;34170;54.364;18.582;2024-03-02T05:26:25;74.40;;;36.17;;
48363;SDS011;34170;54.364;18.582;2024-03-02T05:28:53;80.10;;;38.58;;
48363;SDS011;34170;54.364;18.582;2024-03-02T05:31:20;76.45;;;37.70;;
48363;SDS011;34170;54.364;18.582;2024-03-02T05:33:48;80.40;;;37.35;;
48363;SDS011;34170;54.364;18.582;2024-03-02T05:36:20;72.50;;;35.30;;
48363;SDS011;34170;54.364;18.582;2024-03-02T05:38:48;68.60;;;34.88;;
48363;SDS011;34170;54.364;18.582;2024-03-02T05:41:15;71.22;;;34.00;;
48363;SDS011;34170;54.364;18.582;2024-03-02T05:43:43;80.38;;;38.60;;
48363;SDS011;34170;54.364;18.582;2024-03-02T05:46:10;68.78;;;38.22;;
48363;SDS011;34170;54.364;18.582;2024-03-02T05:48:39;75.47;;;35.92;;
48363;SDS011;34170;54.364;18.582;2024-03-02T05:51:06;73.38;;;36.70;;
48363;SDS011;34170;54.364;18.582;2024-03-02T05:53:34;73.25;;;36.30;;
48363;SDS011;34170;54.364;18.582;2024-03-02T05:56:05;77.60;;;38.28;;
48363;SDS011;34170;54.364;18.582;2024-03-02T05:58:33;79.45;;;37.85;;
48363;SDS011;34170;54.364;18.582;2024-03-02T06:01:24;77.30;;;34.63;;
48363;SDS011;34170;54.364;18.582;2024-03-02T06:03:56;77.03;;;36.55;;
48363;SDS011;34170;54.364;18.582;2024-03-02T06:06:25;71.20;;;33.80;;
48363;SDS011;34170;54.364;18.582;2024-03-02T06:08:54;76.20;;;36.20;;
48363;SDS011;34170;54.364;18.582;2024-03-02T06:11:21;72.07;;;36.47;;
48363;SDS011;34170;54.364;18.582;2024-03-02T06:13:49;75.20;;;35.90;;
48363;SDS011;34170;54.364;18.582;2024-03-02T06:16:17;84.90;;;39.22;;
48363;SDS011;34170;54.364;18.582;2024-03-02T06:18:45;71.13;;;35.78;;
48363;SDS011;34170;54.364;18.582;2024-03-02T06:21:12;81.32;;;38.97;;
48363;SDS011;34170;54.364;18.582;2024-03-02T06:23:40;77.07;;;40.42;;
48363;SDS011;34170;54.364;18.582;2024-03-02T06:26:07;71.80;;;36.03;;
48363;SDS011;34170;54.364;18.582;2024-03-02T06:28:35;75.65;;;37.00;;
48363;SDS011;34170;54.364;18.582;2024-03-02T06:31:02;82.68;;;37.88;;
48363;SDS011;34170;54.364;18.582;2024-03-02T06:33:30;75.72;;;37.63;;
48363;SDS011;34170;54.364;18.582;2024-03-02T06:35:58;74.15;;;35.22;;
48363;SDS011;34170;54.364;18.582;2024-03-02T06:38:26;75.50;;;41.97;;
48363;SDS011;34170;54.364;18.582;2024-03-02T06:40:54;78.00;;;36.53;;
48363;SDS011;34170;54.364;18.582;2024-03-02T06:43:24;80.60;;;39.65;;
48363;SDS011;34170;54.364;18.582;2024-03-02T06:45:52;74.50;;;37.95;;
48363;SDS011;34170;54.364;18.582;2024-03-02T06:48:20;78.47;;;36.30;;
48363;SDS011;34170;54.364;18.582;2024-03-02T06:50:47;79.25;;;36.78;;
48363;SDS011;34170;54.364;18.582;2024-03-02T06:53:15;78.50;;;38.10;;
48363;SDS011;34170;54.364;18.582;2024-03-02T06:55:47;73.10;;;34.95;;
48363;SDS011;34170;54.364;18.582;2024-03-02T06:58:15;76.93;;;36.00;;
48363;SDS011;34170;54.364;18.582;2024-03-02T07:00:42;73.85;;;35.75;;
48363;SDS011;34170;54.364;18.582;2024-03-02T07:03:11;77.10;;;38.08;;
48363;SDS011;34170;54.364;18.582;2024-03-02T07:05:40;84.68;;;41.17;;
48363;SDS011;34170;54.364;18.582;2024-03-02T07:08:08;76.53;;;35.13;;
48363;SDS011;34170;54.364;18.582;2024-03-02T07:10:36;76.05;;;35.88;;
48363;SDS011;34170;54.364;18.582;2024-03-02T07:13:03;75.65;;;35.58;;
48363;SDS011;34170;54.364;18.582;2024-03-02T07:15:31;72.53;;;36.15;;
48363;SDS011;34170;54.364;18.582;2024-03-02T07:18:04;73.28;;;37.10;;
48363;SDS011;34170;54.364;18.582;2024-03-02T07:20:32;80.55;;;38.83;;
48363;SDS011;34170;54.364;18.582;2024-03-02T07:23:00;75.78;;;37.95;;
48363;SDS011;34170;54.364;18.582;2024-03-02T07:25:27;75.43;;;36.33;;
48363;SDS011;34170;54.364;18.582;2024-03-02T07:27:58;67.65;;;34.90;;
48363;SDS011;34170;54.364;18.582;2024-03-02T07:30:25;75.93;;;37.28;;
48363;SDS011;34170;54.364;18.582;2024-03-02T07:32:53;71.18;;;37.15;;
48363;SDS011;34170;54.364;18.582;2024-03-02T07:35:21;82.70;;;39.67;;
48363;SDS011;34170;54.364;18.582;2024-03-02T07:37:49;83.35;;;38.72;;
48363;SDS011;34170;54.364;18.582;2024-03-02T07:40:17;75.93;;;38.45;;
48363;SDS011;34170;54.364;18.582;2024-03-02T07:42:45;72.78;;;36.58;;
48363;SDS011;34170;54.364;18.582;2024-03-02T07:45:13;79.35;;;39.15;;
48363;SDS011;34170;54.364;18.582;2024-03-02T07:47:40;89.47;;;42.20;;
48363;SDS011;34170;54.364;18.582;2024-03-02T07:50:08;79.65;;;37.60;;
48363;SDS011;34170;54.364;18.582;2024-03-02T07:52:36;86.00;;;43.25;;
48363;SDS011;34170;54.364;18.582;2024-03-02T07:55:04;78.95;;;35.83;;
48363;SDS011;34170;54.364;18.582;2024-03-02T07:57:33;82.32;;;38.67;;
48363;SDS011;34170;54.364;18.582;2024-03-02T08:00:02;78.70;;;39.17;;
48363;SDS011;34170;54.364;18.582;2024-03-02T08:02:38;71.25;;;36.55;;
48363;SDS011;34170;54.364;18.582;2024-03-02T08:05:06;73.20;;;37.08;;
48363;SDS011;34170;54.364;18.582;2024-03-02T08:07:34;78.93;;;38.28;;
48363;SDS011;34170;54.364;18.582;2024-03-02T08:10:02;78.70;;;37.95;;
48363;SDS011;34170;54.364;18.582;2024-03-02T08:12:30;77.55;;;39.72;;
48363;SDS011;34170;54.364;18.582;2024-03-02T08:14:58;74.35;;;38.47;;
48363;SDS011;34170;54.364;18.582;2024-03-02T08:17:25;79.15;;;37.40;;
48363;SDS011;34170;54.364;18.582;2024-03-02T08:19:53;74.03;;;36.80;;
48363;SDS011;34170;54.364;18.582;2024-03-02T08:22:22;76.00;;;36.53;;
48363;SDS011;34170;54.364;18.582;2024-03-02T08:24:52;74.75;;;36.22;;
48363;SDS011;34170;54.364;18.582;2024-03-02T08:27:20;70.03;;;34.95;;
48363;SDS011;34170;54.364;18.582;2024-03-02T08:29:48;72.00;;;35.65;;
48363;SDS011;34170;54.364;18.582;2024-03-02T08:32:16;77.78;;;35.50;;
48363;SDS011;34170;54.364;18.582;2024-03-02T08:34:44;68.45;;;33.30;;
48363;SDS011;34170;54.364;18.582;2024-03-02T08:37:12;71.53;;;33.58;;
48363;SDS011;34170;54.364;18.582;2024-03-02T08:39:39;63.58;;;33.03;;
48363;SDS011;34170;54.364;18.582;2024-03-02T08:42:07;70.68;;;34.92;;
48363;SDS011;34170;54.364;18.582;2024-03-02T08:44:35;64.57;;;34.28;;
48363;SDS011;34170;54.364;18.582;2024-03-02T08:47:03;71.50;;;33.75;;
48363;SDS011;34170;54.364;18.582;2024-03-02T08:49:31;74.28;;;36.97;;
48363;SDS011;34170;54.364;18.582;2024-03-02T08:51:58;70.35;;;33.78;;
48363;SDS011;34170;54.364;18.582;2024-03-02T08:54:26;71.60;;;37.28;;
48363;SDS011;34170;54.364;18.582;2024-03-02T08:56:54;70.97;;;37.10;;
48363;SDS011;34170;54.364;18.582;2024-03-02T08:59:21;72.50;;;37.83;;
48363;SDS011;34170;54.364;18.582;2024-03-02T09:01:49;74.68;;;36.92;;
48363;SDS011;34170;54.364;18.582;2024-03-02T09:04:16;74.60;;;38.08;;
48363;SDS011;34170;54.364;18.582;2024-03-02T09:06:44;79.88;;;38.95;;
48363;SDS011;34170;54.364;18.582;2024-03-02T09:09:12;79.68;;;39.58;;
48363;SDS011;34170;54.364;18.582;2024-03-02T09:11:39;79.22;;;38.08;;
48363;SDS011;34170;54.364;18.582;2024-03-02T09:14:07;75.05;;;37.00;;
48363;SDS011;34170;54.364;18.582;2024-03-02T09:16:35;73.22;;;39.65;;
48363;SDS011;34170;54.364;18.582;2024-03-02T09:19:03;81.28;;;38.10;;
48363;SDS011;34170;54.364;18.582;2024-03-02T09:21:31;72.45;;;34.63;;
48363;SDS011;34170;54.364;18.582;2024-03-02T09:23:58;70.68;;;37.60;;
48363;SDS011;34170;54.364;18.582;2024-03-02T09:26:26;65.57;;;34.85;;
48363;SDS011;34170;54.364;18.582;2024-03-02T09:28:53;68.43;;;35.63;;
48363;SDS011;34170;54.364;18.582;2024-03-02T09:31:21;73.53;;;36.13;;
48363;SDS011;34170;54.364;18.582;2024-03-02T09:33:49;72.70;;;36.88;;
48363;SDS011;34170;54.364;18.582;2024-03-02T09:36:17;71.05;;;37.80;;
48363;SDS011;34170;54.364;18.582;2024-03-02T09:38:45;77.40;;;38.03;;
48363;SDS011;34170;54.364;18.582;2024-03-02T09:41:14;65.03;;;35.42;;
48363;SDS011;34170;54.364;18.582;2024-03-02T09:43:42;70.38;;;34.75;;
48363;SDS011;34170;54.364;18.582;2024-03-02T09:46:10;71.95;;;35.05;;
48363;SDS011;34170;54.364;18.582;2024-03-02T09:48:38;77.13;;;37.25;;
48363;SDS011;34170;54.364;18.582;2024-03-02T09:51:06;69.32;;;37.28;;
48363;SDS011;34170;54.364;18.582;2024-03-02T09:53:35;72.30;;;34.70;;
48363;SDS011;34170;54.364;18.582;2024-03-02T09:56:03;73.88;;;38.13;;
48363;SDS011;34170;54.364;18.582;2024-03-02T09:58:34;69.50;;;36.45;;
48363;SDS011;34170;54.364;18.582;2024-03-02T10:01:05;66.72;;;35.30;;
48363;SDS011;34170;54.364;18.582;2024-03-02T10:03:33;73.07;;;37.10;;
48363;SDS011;34170;54.364;18.582;2024-03-02T10:08:48;68.32;;;35.88;;
48363;SDS011;34170;54.364;18.582;2024-03-02T10:14:05;65.55;;;38.25;;
48363;SDS011;34170;54.364;18.582;2024-03-02T10:16:43;68.78;;;34.47;;
48363;SDS011;34170;54.364;18.582;2024-03-02T10:19:18;64.03;;;33.75;;
48363;SDS011;34170;54.364;18.582;2024-03-02T10:21:48;62.30;;;33.40;;
48363;SDS011;34170;54.364;18.582;2024-03-02T10:24:17;61.70;;;32.70;;
48363;SDS011;34170;54.364;18.582;2024-03-02T10:26:45;64.50;;;34.75;;
48363;SDS011;34170;54.364;18.582;2024-03-02T10:29:13;60.10;;;33.17;;
48363;SDS011;34170;54.364;18.582;2024-03-02T10:31:42;58.92;;;32.78;;
48363;SDS011;34170;54.364;18.582;2024-03-02T10:34:12;59.63;;;33.50;;
48363;SDS011;34170;54.364;18.582;2024-03-02T10:36:41;58.30;;;33.72;;
48363;SDS011;34170;54.364;18.582;2024-03-02T10:39:10;60.33;;;32.67;;
48363;SDS011;34170;54.364;18.582;2024-03-02T10:41:40;62.70;;;34.72;;
48363;SDS011;34170;54.364;18.582;2024-03-02T10:44:08;60.75;;;34.35;;
48363;SDS011;34170;54.364;18.582;2024-03-02T10:46:37;60.63;;;33.42;;
48363;SDS011;34170;54.364;18.582;2024-03-02T10:49:05;60.08;;;32.90;;
48363;SDS011;34170;54.364;18.582;2024-03-02T10:51:35;57.28;;;32.67;;
48363;SDS011;34170;54.364;18.582;2024-03-02T10:54:04;62.85;;;33.42;;
48363;SDS011;34170;54.364;18.582;2024-03-02T10:56:33;66.07;;;33.00;;
48363;SDS011;34170;54.364;18.582;2024-03-02T10:59:49;60.28;;;31.90;;
48363;SDS011;34170;54.364;18.582;2024-03-02T11:02:03;63.50;;;34.28;;
48363;SDS011;34170;54.364;18.582;2024-03-02T11:04:34;57.30;;;33.08;;
48363;SDS011;34170;54.364;18.582;2024-03-02T11:07:04;56.90;;;31.55;;
48363;SDS011;34170;54.364;18.582;2024-03-02T11:09:34;54.47;;;30.92;;
48363;SDS011;34170;54.364;18.582;2024-03-02T11:12:09;59.85;;;31.52;;
48363;SDS011;34170;54.364;18.582;2024-03-02T11:14:41;56.72;;;31.25;;
48363;SDS011;34170;54.364;18.582;2024-03-02T11:17:13;56.03;;;31.48;;
48363;SDS011;34170;54.364;18.582;2024-03-02T11:19:45;55.25;;;29.00;;
48363;SDS011;34170;54.364;18.582;2024-03-02T11:22:14;55.33;;;29.48;;
48363;SDS011;34170;54.364;18.582;2024-03-02T11:24:49;55.42;;;29.40;;
48363;SDS011;34170;54.364;18.582;2024-03-02T11:27:58;49.22;;;28.70;;
48363;SDS011;34170;54.364;18.582;2024-03-02T11:33:08;51.17;;;28.40;;
48363;SDS011;34170;54.364;18.582;2024-03-02T11:35:43;52.83;;;29.52;;
48363;SDS011;34170;54.364;18.582;2024-03-02T11:38:15;56.83;;;31.15;;
48363;SDS011;34170;54.364;18.582;2024-03-02T11:40:42;53.50;;;28.83;;
48363;SDS011;34170;54.364;18.582;2024-03-02T11:43:10;55.22;;;31.13;;
48363;SDS011;34170;54.364;18.582;2024-03-02T11:45:38;53.95;;;28.38;;
48363;SDS011;34170;54.364;18.582;2024-03-02T11:48:15;53.85;;;31.08;;
48363;SDS011;34170;54.364;18.582;2024-03-02T11:50:46;50.97;;;28.37;;
48363;SDS011;34170;54.364;18.582;2024-03-02T11:53:17;50.95;;;29.45;;
48363;SDS011;34170;54.364;18.582;2024-03-02T11:55:45;53.55;;;29.88;;
48363;SDS011;34170;54.364;18.582;2024-03-02T11:58:14;57.13;;;31.98;;
48363;SDS011;34170;54.364;18.582;2024-03-02T12:00:51;54.10;;;29.73;;
48363;SDS011;34170;54.364;18.582;2024-03-02T12:03:20;50.58;;;29.25;;
48363;SDS011;34170;54.364;18.582;2024-03-02T12:05:50;55.15;;;30.73;;
48363;SDS011;34170;54.364;18.582;2024-03-02T12:08:18;49.30;;;29.83;;
48363;SDS011;34170;54.364;18.582;2024-03-02T12:10:59;55.90;;;30.75;;
48363;SDS011;34170;54.364;18.582;2024-03-02T12:13:31;58.38;;;32.70;;
48363;SDS011;34170;54.364;18.582;2024-03-02T12:15:58;51.40;;;28.75;;
48363;SDS011;34170;54.364;18.582;2024-03-02T12:18:26;54.25;;;30.38;;
48363;SDS011;34170;54.364;18.582;2024-03-02T12:20:54;53.33;;;32.45;;
48363;SDS011;34170;54.364;18.582;2024-03-02T12:23:26;54.45;;;31.02;;
48363;SDS011;34170;54.364;18.582;2024-03-02T12:25:54;53.80;;;30.30;;
48363;SDS011;34170;54.364;18.582;2024-03-02T12:28:22;53.67;;;29.58;;
48363;SDS011;34170;54.364;18.582;2024-03-02T12:30:49;52.50;;;30.88;;
48363;SDS011;34170;54.364;18.582;2024-03-02T12:33:17;49.28;;;29.90;;
48363;SDS011;34170;54.364;18.582;2024-03-02T12:35:45;54.05;;;29.65;;
48363;SDS011;34170;54.364;18.582;2024-03-02T12:38:14;58.70;;;31.17;;
48363;SDS011;34170;54.364;18.582;2024-03-02T12:40:41;51.30;;;31.10;;
48363;SDS011;34170;54.364;18.582;2024-03-02T12:43:09;55.38;;;31.92;;
48363;SDS011;34170;54.364;18.582;2024-03-02T12:45:38;54.65;;;30.52;;
48363;SDS011;34170;54.364;18.582;2024-03-02T12:48:06;54.50;;;31.52;;
48363;SDS011;34170;54.364;18.582;2024-03-02T12:50:34;55.35;;;31.25;;
48363;SDS011;34170;54.364;18.582;2024-03-02T12:53:01;56.67;;;32.00;;
48363;SDS011;34170;54.364;18.582;2024-03-02T12:55:29;57.35;;;30.38;;
48363;SDS011;34170;54.364;18.582;2024-03-02T12:57:57;48.42;;;28.27;;
48363;SDS011;34170;54.364;18.582;2024-03-02T13:00:26;53.83;;;31.88;;
48363;SDS011;34170;54.364;18.582;2024-03-02T13:02:56;56.70;;;30.38;;
48363;SDS011;34170;54.364;18.582;2024-03-02T13:05:29;51.45;;;30.00;;
48363;SDS011;34170;54.364;18.582;2024-03-02T13:07:59;53.40;;;29.45;;
48363;SDS011;34170;54.364;18.582;2024-03-02T13:10:27;54.13;;;30.73;;
48363;SDS011;34170;54.364;18.582;2024-03-02T13:12:58;54.17;;;30.50;;
48363;SDS011;34170;54.364;18.582;2024-03-02T13:15:27;52.88;;;29.83;;
48363;SDS011;34170;54.364;18.582;2024-03-02T13:17:58;52.90;;;31.48;;
48363;SDS011;34170;54.364;18.582;2024-03-02T13:20:31;51.33;;;29.98;;
48363;SDS011;34170;54.364;18.582;2024-03-02T13:23:03;53.78;;;29.85;;
48363;SDS011;34170;54.364;18.582;2024-03-02T13:25:30;52.17;;;31.45;;
48363;SDS011;34170;54.364;18.582;2024-03-02T13:27:59;54.90;;;30.42;;
48363;SDS011;34170;54.364;18.582;2024-03-02T13:30:27;52.38;;;28.55;;
48363;SDS011;34170;54.364;18.582;2024-03-02T13:32:55;52.60;;;30.20;;
48363;SDS011;34170;54.364;18.582;2024-03-02T13:35:23;49.80;;;27.77;;
48363;SDS011;34170;54.364;18.582;2024-03-02T13:37:51;54.00;;;30.02;;
48363;SDS011;34170;54.364;18.582;2024-03-02T13:40:18;53.72;;;31.20;;
48363;SDS011;34170;54.364;18.582;2024-03-02T13:42:47;58.20;;;30.48;;
48363;SDS011;34170;54.364;18.582;2024-03-02T13:45:16;56.70;;;33.95;;
48363;SDS011;34170;54.364;18.582;2024-03-02T13:47:45;58.30;;;31.73;;
48363;SDS011;34170;54.364;18.582;2024-03-02T13:50:13;56.15;;;31.30;;
48363;SDS011;34170;54.364;18.582;2024-03-02T13:52:41;57.55;;;31.95;;
48363;SDS011;34170;54.364;18.582;2024-03-02T13:55:09;48.70;;;28.58;;
48363;SDS011;34170;54.364;18.582;2024-03-02T13:57:36;59.85;;;30.70;;
48363;SDS011;34170;54.364;18.582;2024-03-02T14:00:04;53.90;;;30.05;;
48363;SDS011;34170;54.364;18.582;2024-03-02T14:02:40;55.15;;;30.42;;
48363;SDS011;34170;54.364;18.582;2024-03-02T14:05:08;53.67;;;29.45;;
48363;SDS011;34170;54.364;18.582;2024-03-02T14:07:39;51.30;;;28.58;;
48363;SDS011;34170;54.364;18.582;2024-03-02T14:10:08;48.22;;;28.20;;
48363;SDS011;34170;54.364;18.582;2024-03-02T14:12:37;57.85;;;28.05;;
48363;SDS011;34170;54.364;18.582;2024-03-02T14:15:04;46.78;;;26.92;;
48363;SDS011;34170;54.364;18.582;2024-03-02T14:17:33;51.95;;;28.70;;
48363;SDS011;34170;54.364;18.582;2024-03-02T14:20:01;51.30;;;27.75;;
48363;SDS011;34170;54.364;18.582;2024-03-02T14:22:29;46.45;;;26.00;;
48363;SDS011;34170;54.364;18.582;2024-03-02T14:24:56;46.17;;;25.00;;
48363;SDS011;34170;54.364;18.582;2024-03-02T14:27:24;48.83;;;27.77;;
48363;SDS011;34170;54.364;18.582;2024-03-02T14:30:12;52.28;;;29.08;;
48363;SDS011;34170;54.364;18.582;2024-03-02T14:32:40;54.72;;;30.85;;
48363;SDS011;34170;54.364;18.582;2024-03-02T14:35:08;51.75;;;29.00;;